Weather at Nanjing Lukou Airport

Public forecast

Using degrees Celsius for public forecast. Weather courtesy of forecast.io.

Current aviation weather report (METAR) for Nanjing Lukou Airport

Retrieved 2021/01/20 09:00 UTC (12 minutes ago):

ZSNJ 200900Z 12002MPS CAVOK 16/02 Q1020 NOSIG

Aviation forecast (TAF) for Nanjing Lukou Airport

Retrieved 2021/01/20 06:03 UTC (3 hours ago):

TAF ZSNJ 200305Z 2006/2106 12003MPS 5000 BR NSC TX15/2006Z TN05/2022Z BECMG 2021/2022 1500 -RA BR BKN010 BECMG 2101/2103 3000